createdAt,value
2022-09-14T04:13:36.769Z,0.857143
2022-09-14T04:14:36.810Z,0.857143
2022-09-14T04:15:36.896Z,0.857143
2022-09-14T04:16:36.937Z,1.71429
2022-09-14T04:17:36.939Z,1.71429
2022-09-14T04:18:36.988Z,2.5
2022-09-14T04:19:37.040Z,3.35714
2022-09-14T04:20:37.112Z,4.21429
2022-09-14T04:21:37.124Z,5
2022-09-14T04:22:37.164Z,5.85714
2022-09-14T04:23:51.293Z,7.5
2022-09-14T04:24:37.245Z,9.21429
2022-09-14T04:25:37.322Z,10.8571
2022-09-14T04:26:37.336Z,12.5
2022-09-14T04:27:37.389Z,15
2022-09-14T04:28:37.432Z,17.5
2022-09-14T04:29:37.474Z,20.8571
2022-09-14T04:30:37.524Z,23.3571
2022-09-14T04:31:37.638Z,26.7143
2022-09-14T04:32:37.615Z,30
2022-09-14T04:33:37.655Z,32.5
2022-09-14T04:34:37.705Z,35.8571
2022-09-14T04:35:37.750Z,39.2143
2022-09-14T04:36:37.793Z,41.7143
2022-09-14T04:37:37.834Z,44.2143
2022-09-14T04:38:37.880Z,48.3571
2022-09-14T04:39:37.921Z,54.2143
2022-09-14T04:40:37.967Z,61.7143
2022-09-14T04:41:38.015Z,67.5
2022-09-14T04:42:38.056Z,71.7143
2022-09-14T04:43:38.103Z,75.8571
2022-09-14T04:44:38.170Z,81.7143
2022-09-14T04:45:38.191Z,88.3571
2022-09-14T04:46:42.143Z,93.3571
2022-09-14T04:47:38.272Z,101.714
2022-09-14T04:48:38.319Z,116.714
2022-09-14T04:49:38.405Z,134.214
2022-09-14T04:50:38.407Z,150
2022-09-14T04:51:38.454Z,168.357
2022-09-14T04:52:38.487Z,188.357
2022-09-14T04:53:38.526Z,202.5
2022-09-14T04:54:38.608Z,210.857
2022-09-14T04:55:38.608Z,225.857
2022-09-14T04:56:38.643Z,246.714
2022-09-14T04:57:38.681Z,257.5
2022-09-14T04:58:38.720Z,256.714
2022-09-14T04:59:38.793Z,244.214
2022-09-14T05:00:38.821Z,234.214
2022-09-14T05:01:38.893Z,235
2022-09-14T05:02:38.929Z,251.714
2022-09-14T05:03:38.933Z,284.214
2022-09-14T05:04:38.976Z,288.357
2022-09-14T05:05:42.985Z,299.214
2022-09-14T05:06:39.052Z,315
2022-09-14T05:07:39.097Z,303.357
2022-09-14T05:08:39.136Z,296.714
2022-09-14T05:09:39.184Z,292.5
2022-09-14T05:10:39.220Z,298.357
2022-09-14T05:11:39.261Z,309.214
2022-09-14T05:12:39.305Z,315.857
2022-09-14T05:13:39.344Z,320.857
2022-09-14T05:14:39.398Z,333.357
2022-09-14T05:15:39.448Z,353.357
2022-09-14T05:16:39.479Z,393.357
2022-09-14T05:17:39.521Z,426.714
2022-09-14T05:18:39.622Z,471.714
2022-09-14T05:19:39.598Z,525.857
2022-09-14T05:20:39.676Z,535
2022-09-14T05:21:39.689Z,533.357
2022-09-14T05:22:39.727Z,557.5
2022-09-14T05:23:39.763Z,578.357
2022-09-14T05:24:39.811Z,622.5
2022-09-14T05:25:39.854Z,674.214
2022-09-14T05:26:39.896Z,682.5
2022-09-14T05:27:39.939Z,643.357
2022-09-14T05:28:39.982Z,627.5
2022-09-14T05:29:40.025Z,632.5
2022-09-14T05:30:40.075Z,677.5
2022-09-14T05:31:40.150Z,606.714
2022-09-14T05:32:40.155Z,557.5
2022-09-14T05:33:40.208Z,604.214
2022-09-14T05:34:40.247Z,710
2022-09-14T05:35:40.296Z,755.857
2022-09-14T05:36:40.345Z,763.357
2022-09-14T05:37:40.404Z,708.357
2022-09-14T05:38:40.442Z,640
2022-09-14T05:39:40.484Z,630
2022-09-14T05:40:40.523Z,612.5
2022-09-14T05:41:40.556Z,720.857
2022-09-14T05:42:40.589Z,895
2022-09-14T05:43:40.652Z,960
2022-09-14T05:44:40.680Z,978.357
2022-09-14T05:45:40.728Z,934.214
2022-09-14T05:46:40.929Z,843.357
2022-09-14T05:47:40.810Z,895
2022-09-14T05:48:40.955Z,862.5
2022-09-14T05:49:40.892Z,815
2022-09-14T05:50:40.937Z,1015.86
2022-09-14T05:51:40.981Z,1026.71
2022-09-14T05:52:41.019Z,923.357
2022-09-14T05:53:41.054Z,867.5
2022-09-14T05:54:41.093Z,996.714
2022-09-14T05:55:41.161Z,1080
2022-09-14T05:56:41.187Z,1116.71
2022-09-14T05:57:41.234Z,1081.71
2022-09-14T05:58:41.273Z,1082.5
2022-09-14T05:59:41.317Z,984.214
2022-09-14T06:00:41.365Z,960
2022-09-14T06:01:41.463Z,941.714
2022-09-14T06:02:41.451Z,976.714
2022-09-14T06:03:41.502Z,1035
2022-09-14T06:04:41.527Z,1031.71
2022-09-14T06:05:41.674Z,1117.5
2022-09-14T06:06:49.192Z,1265.86
2022-09-14T06:07:41.652Z,1325
2022-09-14T06:08:41.691Z,1359.21
2022-09-14T06:09:41.733Z,1363.36
2022-09-14T06:10:41.780Z,1363.36
2022-09-14T06:11:41.822Z,1363.36
2022-09-14T06:12:41.860Z,1340
2022-09-14T06:13:41.904Z,1297.5
2022-09-14T06:14:41.953Z,1231.71
2022-09-14T06:15:41.983Z,1256.71
2022-09-14T06:16:42.030Z,1331.71
2022-09-14T06:17:42.064Z,1410
2022-09-14T06:18:42.102Z,1455.86
2022-09-14T06:19:42.139Z,1512.5
2022-09-14T06:20:42.188Z,1581.71
2022-09-14T06:21:42.236Z,1648.36
2022-09-14T06:22:42.273Z,1747.5
2022-09-14T06:23:42.321Z,1752.5
2022-09-14T06:24:42.365Z,1725.86
2022-09-14T06:25:42.410Z,1716.71
2022-09-14T06:26:42.458Z,1661.71
2022-09-14T06:27:42.495Z,1588.36
2022-09-14T06:28:42.535Z,1575.86
2022-09-14T06:29:42.578Z,1565.86
2022-09-14T06:30:42.617Z,1630.86
2022-09-14T06:31:42.656Z,1677.5
2022-09-14T06:32:42.700Z,1680.86
2022-09-14T06:33:42.739Z,1700.86
2022-09-14T06:34:42.781Z,1745.86
2022-09-14T06:35:42.829Z,1761.71
2022-09-14T06:36:42.869Z,1971.71
2022-09-14T06:37:42.920Z,2240
2022-09-14T06:38:43.118Z,1982.5
2022-09-14T06:39:43.024Z,1828.36
2022-09-14T06:40:43.030Z,1867.5
2022-09-14T06:41:43.078Z,1864.21
2022-09-14T06:42:43.120Z,1813.36
2022-09-14T06:43:43.153Z,1804.21
2022-09-14T06:44:43.197Z,1861.71
2022-09-14T06:45:43.237Z,2000
2022-09-14T06:46:47.411Z,2069.21
2022-09-14T06:47:43.320Z,1857.5
2022-09-14T06:48:43.364Z,1741.71
2022-09-14T06:49:43.411Z,2098.36
2022-09-14T06:50:43.459Z,2721.71
2022-09-14T06:51:43.496Z,3260
2022-09-14T06:52:43.535Z,3518.36
2022-09-14T06:53:43.689Z,3165
2022-09-14T06:54:43.615Z,3038.36
2022-09-14T06:55:43.660Z,2710.86
2022-09-14T06:56:43.699Z,2368.36
2022-09-14T06:57:43.735Z,2123.36
2022-09-14T06:58:43.781Z,2260
2022-09-14T06:59:43.824Z,2163.36
2022-09-14T07:00:43.861Z,2030
2022-09-14T07:01:43.901Z,2133.36
2022-09-14T07:02:44.027Z,2230.86
2022-09-14T07:03:44.132Z,468.357
2022-09-14T07:04:44.030Z,2037.5
2022-09-14T07:05:44.063Z,1864.21
2022-09-14T07:06:44.099Z,1654.21
2022-09-14T07:07:44.134Z,1546.71
2022-09-14T07:08:44.246Z,1425.86
2022-09-14T07:09:44.209Z,1300.86
2022-09-14T07:10:44.244Z,1186.71
2022-09-14T07:11:44.283Z,1144.21
2022-09-14T07:12:44.311Z,1150.86
2022-09-14T07:13:44.346Z,1266.71
2022-09-14T07:14:44.379Z,1399.21
2022-09-14T07:15:44.409Z,1478.36
2022-09-14T07:16:44.447Z,1551.71
2022-09-14T07:17:44.491Z,1675
2022-09-14T07:18:44.522Z,1860.86
2022-09-14T07:19:44.553Z,2090.86
2022-09-14T07:20:44.586Z,2320.86
2022-09-14T07:21:44.619Z,2478.36
2022-09-14T07:22:44.655Z,2470.86
2022-09-14T07:23:44.698Z,2377.5
2022-09-14T07:24:44.733Z,2272.5
2022-09-14T07:25:44.764Z,2171.71
2022-09-14T07:26:44.802Z,2055.86
2022-09-14T07:27:44.840Z,2019.21
2022-09-14T07:28:44.880Z,2037.5
2022-09-14T07:29:44.917Z,2160.86
2022-09-14T07:30:45.002Z,2289.21
2022-09-14T07:31:44.993Z,2383.36
2022-09-14T07:32:45.030Z,2377.5
2022-09-14T07:33:45.063Z,2499.21
2022-09-14T07:34:45.102Z,2725
2022-09-14T07:35:45.137Z,3035.86
2022-09-14T07:36:45.175Z,3152.5
2022-09-14T07:37:45.210Z,3193.36
2022-09-14T07:38:52.647Z,3320.86
2022-09-14T07:39:45.305Z,3558.36
2022-09-14T07:40:45.310Z,3565.86
2022-09-14T07:41:45.347Z,3555
2022-09-14T07:42:45.383Z,3570.86
2022-09-14T07:43:45.448Z,3557.5
2022-09-14T07:44:45.463Z,3616.71
2022-09-14T07:45:45.552Z,3674.21
2022-09-14T07:46:45.535Z,3739.21
2022-09-14T07:47:45.560Z,3635
2022-09-14T07:48:45.626Z,3451.71
2022-09-14T07:49:45.632Z,3480.86
2022-09-14T07:50:45.706Z,3439.21
2022-09-14T07:51:45.703Z,3430.86
2022-09-14T07:52:45.738Z,3541.71
2022-09-14T07:53:45.782Z,3573.36
2022-09-14T07:54:45.802Z,3592.5
2022-09-14T07:55:45.837Z,3715.86
2022-09-14T07:56:45.876Z,3790.86
2022-09-14T07:57:56.213Z,3882.5
2022-09-14T07:58:45.940Z,3905.86
2022-09-14T07:59:36.476Z,3871.71
2022-09-14T08:10:07.590Z,3425
2022-09-14T08:11:07.617Z,3432.5
2022-09-14T08:12:07.653Z,3381.71
2022-09-14T08:13:07.695Z,3281.71
2022-09-14T08:14:07.749Z,3220.86
2022-09-14T08:15:07.758Z,3170
2022-09-14T08:16:07.835Z,3161.71
2022-09-14T08:17:07.826Z,3192.5
2022-09-14T08:18:07.855Z,3232.5
2022-09-14T08:19:07.915Z,3266.71
2022-09-14T08:20:07.934Z,3303.36
2022-09-14T08:21:07.960Z,3396.71
2022-09-14T08:22:08.006Z,3462.5
2022-09-14T08:23:08.067Z,3551.71
2022-09-14T08:24:08.080Z,3680.86
2022-09-14T08:25:08.117Z,3840
2022-09-14T08:26:08.157Z,3986.71
2022-09-14T08:27:08.947Z,4123.36
2022-09-14T08:28:08.243Z,4202.5
2022-09-14T08:29:08.258Z,4277.5
2022-09-14T08:30:08.298Z,4349.21
2022-09-14T08:31:08.341Z,4426.71
2022-09-14T08:32:08.472Z,4430.86
2022-09-14T08:33:08.423Z,4345.86
2022-09-14T08:34:08.436Z,4188.36
2022-09-14T08:35:08.471Z,4024.21
2022-09-14T08:36:08.512Z,3981.71
2022-09-14T08:37:08.555Z,4016.71
2022-09-14T08:38:08.623Z,4068.36
2022-09-14T08:39:08.630Z,4000
2022-09-14T08:40:08.684Z,3881.71
2022-09-14T08:41:08.703Z,3820.86
2022-09-14T08:42:08.748Z,3808.36
2022-09-14T08:43:08.833Z,3794.21
2022-09-14T08:44:08.820Z,3774.21
2022-09-14T08:45:09.871Z,3705.86
2022-09-14T08:46:08.908Z,3601.71
2022-09-14T08:47:08.929Z,3571.71
2022-09-14T08:48:08.986Z,3531.71
2022-09-14T08:49:09.012Z,3555
2022-09-14T08:50:09.048Z,3588.36
2022-09-14T08:51:09.075Z,3626.71
2022-09-14T08:52:09.110Z,3539.21
2022-09-14T08:53:09.164Z,3494.21
2022-09-14T08:54:09.203Z,3612.5
2022-09-14T08:55:09.210Z,3731.71
2022-09-14T08:56:09.280Z,3701.71
2022-09-14T08:57:09.272Z,3591.71
2022-09-14T08:58:09.305Z,3600.86
2022-09-14T08:59:09.340Z,3533.36
2022-09-14T09:00:09.373Z,3555
2022-09-14T09:01:09.490Z,3650.86
2022-09-14T09:02:09.437Z,3790
2022-09-14T09:03:09.469Z,3828.36
2022-09-14T09:04:09.535Z,3751.71
2022-09-14T09:05:09.536Z,3706.71
2022-09-14T09:06:12.853Z,3700.86
2022-09-14T09:07:09.599Z,3770
2022-09-14T09:08:09.635Z,3776.71
2022-09-14T09:09:09.668Z,3710
2022-09-14T09:10:09.710Z,3654.21
2022-09-14T09:11:09.737Z,3685
2022-09-14T09:12:09.778Z,3688.36
2022-09-14T09:13:09.807Z,3676.71
2022-09-14T09:14:09.843Z,3639.21
2022-09-14T09:15:09.905Z,3610.86
2022-09-14T09:16:10.005Z,3603.36
2022-09-14T09:17:09.960Z,3559.21
2022-09-14T09:18:09.990Z,3435.86
2022-09-14T09:19:10.033Z,3382.5
2022-09-14T09:20:10.070Z,3405
2022-09-14T09:21:10.133Z,3550
2022-09-14T09:22:10.131Z,3656.71
2022-09-14T09:23:10.168Z,3630.86
2022-09-14T09:24:10.201Z,3583.36
2022-09-14T09:25:10.226Z,3500.86
2022-09-14T09:26:10.290Z,3467.5
2022-09-14T09:27:10.294Z,3397.5
2022-09-14T09:28:10.325Z,3461.71
2022-09-14T09:29:10.377Z,3577.5
2022-09-14T09:30:10.399Z,3549.21
2022-09-14T09:31:14.606Z,3487.5
2022-09-14T09:32:10.463Z,3487.5
2022-09-14T09:33:10.497Z,3611.71
2022-09-14T09:34:10.535Z,3763.36
2022-09-14T09:35:10.567Z,3579.21
2022-09-14T09:36:10.614Z,3399.21
2022-09-14T09:37:10.669Z,3601.71
2022-09-14T09:38:10.684Z,3709.21
2022-09-14T09:39:10.723Z,3508.36
2022-09-14T09:40:10.794Z,3365.86
2022-09-14T09:41:10.796Z,3631.71
2022-09-14T09:42:10.832Z,3505.86
2022-09-14T09:43:10.879Z,3175
2022-09-14T09:44:10.906Z,3062.5
2022-09-14T09:45:10.944Z,3161.71
2022-09-14T09:46:11.047Z,3212.5
2022-09-14T09:47:11.017Z,3190
2022-09-14T09:48:11.050Z,3204.21
2022-09-14T09:49:11.082Z,3235.86
2022-09-14T09:50:11.118Z,3318.36
2022-09-14T09:51:11.155Z,3441.71
2022-09-14T09:52:11.212Z,3510
2022-09-14T09:53:11.222Z,3540
2022-09-14T09:54:11.281Z,3467.5
2022-09-14T09:55:11.307Z,3522.5
2022-09-14T09:56:11.307Z,3780.86
2022-09-14T09:57:11.345Z,3923.36
2022-09-14T09:58:11.377Z,3941.71
2022-09-14T09:59:11.415Z,3805.86
2022-09-14T10:00:11.457Z,3433.36
2022-09-14T10:01:12.566Z,3058.36
2022-09-14T10:02:11.591Z,2881.71
2022-09-14T10:03:11.555Z,2778.36
2022-09-14T10:04:11.593Z,2725
2022-09-14T10:05:11.633Z,2810.86
2022-09-14T10:06:11.664Z,2948.36
2022-09-14T10:07:11.703Z,3036.71
2022-09-14T10:08:11.834Z,3095.86
2022-09-14T10:09:11.782Z,3242.5
2022-09-14T10:10:11.823Z,3315
2022-09-14T10:11:11.854Z,3364.21
2022-09-14T10:12:11.899Z,3340
2022-09-14T10:13:11.937Z,3290.86
2022-09-14T10:14:11.979Z,3340.86
2022-09-14T10:15:12.013Z,3498.36
2022-09-14T10:16:12.086Z,3574.21
2022-09-14T10:17:12.096Z,3391.71
2022-09-14T10:18:12.134Z,3296.71
2022-09-14T10:19:12.167Z,3422.5
2022-09-14T10:20:12.205Z,3661.71
2022-09-14T10:21:12.241Z,3902.5
2022-09-14T10:22:15.519Z,4001.71
2022-09-14T10:23:12.309Z,4091.71
2022-09-14T10:24:12.347Z,4187.5
2022-09-14T10:25:12.393Z,4286.71
2022-09-14T10:26:12.450Z,4420.86
2022-09-14T10:27:12.458Z,4342.5
2022-09-14T10:28:12.498Z,4531.71
2022-09-14T10:29:12.537Z,4335.86
2022-09-14T10:30:12.705Z,3979.21
2022-09-14T10:31:12.682Z,3710.86
2022-09-14T10:32:12.646Z,3627.5
2022-09-14T10:33:12.680Z,3622.5
2022-09-14T10:34:17.148Z,3576.71
2022-09-14T10:35:12.755Z,3389.21
2022-09-14T10:36:12.812Z,3179.21
2022-09-14T10:37:12.828Z,3155.86
2022-09-14T10:38:12.859Z,3274.21
2022-09-14T10:39:12.897Z,3586.71
2022-09-14T10:40:13.057Z,3747.5
2022-09-14T10:41:12.995Z,3834.21
2022-09-14T10:42:13.012Z,3792.5
2022-09-14T10:43:13.038Z,4459.21
2022-09-14T10:44:13.081Z,4670.86
2022-09-14T10:45:13.108Z,4988.36
2022-09-14T10:46:13.265Z,5747.5
2022-09-14T10:47:13.184Z,5901.71
2022-09-14T10:48:13.219Z,5687.5
2022-09-14T10:49:13.258Z,5120
2022-09-14T10:50:13.301Z,5115
2022-09-14T10:51:13.347Z,4899.21
2022-09-14T10:52:13.383Z,4505.86
2022-09-14T10:53:13.405Z,5131.71
2022-09-14T10:54:13.448Z,4589.21
2022-09-14T10:55:13.484Z,4066.71
2022-09-14T10:56:13.519Z,4703.36
2022-09-14T10:57:13.555Z,4555.86
2022-09-14T10:58:18.047Z,4810.86
2022-09-14T10:59:13.624Z,5037.5
2022-09-14T11:00:13.668Z,4720.86
2022-09-14T11:01:13.814Z,4691.71
2022-09-14T11:02:13.943Z,4535.86
2022-09-14T11:03:13.872Z,4230.86
2022-09-14T11:04:13.810Z,3456.71
2022-09-14T11:05:13.837Z,3225
2022-09-14T11:11:00.579Z,2625.86
2022-09-14T11:12:00.617Z,3037.5
2022-09-14T11:13:00.646Z,3087.5
2022-09-14T11:14:00.687Z,3116.71
2022-09-14T11:15:00.729Z,3491.71
2022-09-14T11:16:00.902Z,3373.36
2022-09-14T11:17:00.813Z,3440
2022-09-14T11:18:00.851Z,2990.86
2022-09-14T11:19:00.867Z,2944.21
2022-09-14T11:20:00.921Z,2573.36
2022-09-14T11:21:00.986Z,2537.5
2022-09-14T11:22:00.985Z,2760.86
2022-09-14T11:23:01.022Z,2807.5
2022-09-14T11:24:01.057Z,2531.71
2022-09-14T11:25:01.095Z,2363.36
2022-09-14T11:26:01.146Z,2056.71
2022-09-14T11:27:01.162Z,2485.86
2022-09-14T11:28:01.197Z,2766.71
2022-09-14T11:29:01.239Z,3002.5
2022-09-14T11:30:01.273Z,3287.5
2022-09-14T11:31:01.363Z,3630.86
2022-09-14T11:32:19.866Z,4001.71
2022-09-14T11:33:01.372Z,4020
2022-09-14T11:34:01.405Z,3807.5
2022-09-14T11:35:01.456Z,3556.71
2022-09-14T11:36:01.499Z,3316.71
2022-09-14T11:37:01.514Z,2898.36
2022-09-14T11:38:01.550Z,2407.5
2022-09-14T11:39:06.585Z,2470.86
2022-09-14T11:40:01.679Z,2266.71
2022-09-14T11:41:01.666Z,1841.71
2022-09-14T11:42:01.702Z,1720.86
2022-09-14T11:43:01.734Z,2329.21
2022-09-14T11:44:01.807Z,2973.36
2022-09-14T11:45:01.804Z,3095.86
2022-09-14T11:46:01.906Z,2565.86
2022-09-14T11:47:01.871Z,2120.86
2022-09-14T11:48:01.900Z,1850
2022-09-14T11:49:01.956Z,1760
2022-09-14T11:50:01.971Z,1695
2022-09-14T11:51:01.993Z,1711.71
2022-09-14T11:52:02.026Z,1707.5
2022-09-14T11:53:02.061Z,1760
2022-09-14T11:54:02.102Z,1876.71
2022-09-14T11:55:02.120Z,1916.71
2022-09-14T11:56:02.149Z,1748.36
2022-09-14T11:57:02.225Z,1592.5
2022-09-14T11:58:02.221Z,1321.71
2022-09-14T11:59:02.257Z,1146.71
2022-09-14T12:00:02.299Z,1240.86
2022-09-14T12:01:02.329Z,1352.5
2022-09-14T12:02:02.377Z,1343.36
2022-09-14T12:03:02.480Z,1436.71
2022-09-14T12:04:02.492Z,1625.86
2022-09-14T12:05:02.445Z,1764.21
2022-09-14T12:06:02.478Z,1953.36
2022-09-14T12:07:02.511Z,2260
2022-09-14T12:08:02.557Z,2813.36
2022-09-14T12:09:02.577Z,3120
2022-09-14T12:10:02.612Z,3027.5
2022-09-14T12:11:02.653Z,2861.71
2022-09-14T12:12:02.706Z,2602.5
2022-09-14T12:13:02.718Z,2463.36
2022-09-14T12:14:02.751Z,2350
2022-09-14T12:15:02.783Z,2573.36
2022-09-14T12:16:02.849Z,2917.5
2022-09-14T12:17:13.039Z,2723.36
2022-09-14T12:18:02.921Z,2750.86
2022-09-14T12:19:02.914Z,2862.5
2022-09-14T12:20:02.953Z,3159.21
2022-09-14T12:21:02.991Z,3116.71
2022-09-14T12:22:03.018Z,2790
2022-09-14T12:23:03.075Z,2538.36
2022-09-14T12:24:03.104Z,2521.71
2022-09-14T12:25:03.121Z,2595.86
2022-09-14T12:26:03.155Z,2487.5
2022-09-14T12:27:03.191Z,2035.86
2022-09-14T12:28:03.226Z,1994.21
2022-09-14T12:29:03.290Z,2468.36
2022-09-14T12:30:03.289Z,2355
2022-09-14T12:31:03.448Z,2380.86
2022-09-14T12:32:03.362Z,2745.86
2022-09-14T12:33:03.400Z,3177.5
2022-09-14T12:34:03.463Z,3378.36
2022-09-14T12:35:03.465Z,3512.5
2022-09-14T12:36:03.499Z,3628.36
2022-09-14T12:37:04.963Z,3744.21
2022-09-14T12:38:03.553Z,3908.36
2022-09-14T12:39:03.611Z,4055
2022-09-14T12:40:03.715Z,4095.86
2022-09-14T12:41:03.658Z,4032.5
2022-09-14T12:42:03.726Z,3966.71
2022-09-14T12:43:03.726Z,3865.86
2022-09-14T12:44:03.755Z,3785
2022-09-14T12:45:03.786Z,3902.5
2022-09-14T12:46:03.864Z,4205
2022-09-14T12:47:03.881Z,4318.36
2022-09-14T12:48:03.888Z,4210
2022-09-14T12:49:03.924Z,4047.5
2022-09-14T12:50:03.959Z,4047.5
2022-09-14T12:51:03.997Z,4020
2022-09-14T12:52:04.072Z,3868.36
2022-09-14T12:53:04.069Z,3621.71
2022-09-14T12:54:04.099Z,3441.71
2022-09-14T12:55:04.138Z,3320.86
2022-09-14T12:56:04.175Z,3152.5
2022-09-14T12:57:04.232Z,2951.71
2022-09-14T12:58:04.231Z,2764.21
2022-09-14T12:59:04.282Z,2589.21
2022-09-14T13:00:04.321Z,2374.21
2022-09-14T13:01:04.394Z,2194.21
2022-09-14T13:02:04.471Z,2083.36
2022-09-14T13:03:04.409Z,1954.21
2022-09-14T13:04:04.439Z,1852.5
2022-09-14T13:05:04.515Z,1719.21
2022-09-14T13:06:04.523Z,1514.21
2022-09-14T13:07:04.553Z,1400
2022-09-14T13:08:04.586Z,1397.5
2022-09-14T13:09:08.915Z,1412.5
2022-09-14T13:10:04.795Z,1380.86
2022-09-14T13:11:04.691Z,1460
2022-09-14T13:12:04.717Z,1575.86
2022-09-14T13:13:04.765Z,1717.5
2022-09-14T13:14:04.802Z,1875
2022-09-14T13:15:04.861Z,1990
2022-09-14T13:16:04.951Z,1973.36
2022-09-14T13:17:04.935Z,1973.36
2022-09-14T13:18:04.963Z,2005
2022-09-14T13:19:05.141Z,2062.5
2022-09-14T13:20:05.155Z,2205
2022-09-14T13:21:05.079Z,2309.21
2022-09-14T13:22:05.094Z,2419.21
2022-09-14T13:23:05.154Z,2564.21
2022-09-14T13:24:05.165Z,2738.36
2022-09-14T13:25:05.230Z,2897.5
2022-09-14T13:26:05.231Z,3017.5
2022-09-14T13:27:05.267Z,3055
2022-09-14T13:28:05.328Z,3029.21
2022-09-14T13:29:05.334Z,2951.71
2022-09-14T13:30:05.364Z,2845
2022-09-14T13:31:05.488Z,2812.5
2022-09-14T13:32:05.438Z,2899.21
2022-09-14T13:33:05.481Z,3035
2022-09-14T13:34:05.495Z,3138.36
2022-09-14T13:35:05.541Z,3140.86
2022-09-14T13:36:05.557Z,3075.86
2022-09-14T13:37:05.595Z,2980.86
2022-09-14T13:38:05.658Z,2896.71
2022-09-14T13:39:05.663Z,2850
2022-09-14T13:40:05.861Z,2853.36
2022-09-14T13:41:05.733Z,2873.36
2022-09-14T13:42:05.768Z,2886.71
2022-09-14T13:43:05.826Z,2861.71
2022-09-14T13:44:05.845Z,2754.21
2022-09-14T13:45:05.876Z,2565
2022-09-14T13:46:05.956Z,2397.5
2022-09-14T13:47:05.961Z,2350
2022-09-14T13:48:05.983Z,2415
2022-09-14T13:49:06.031Z,2520
2022-09-14T13:50:06.044Z,2632.5
2022-09-14T13:51:06.078Z,2685
2022-09-14T13:52:06.119Z,2661.71
2022-09-14T13:53:06.224Z,2581.71
2022-09-14T13:54:06.191Z,2490.86
2022-09-14T13:55:06.222Z,2425
2022-09-14T13:56:06.251Z,2415.86
2022-09-14T13:57:06.284Z,2445.86
2022-09-14T13:58:06.353Z,2450.86
2022-09-14T13:59:06.360Z,2400.86
2022-09-14T14:00:06.389Z,2323.36
2022-09-14T14:01:06.512Z,2276.71
2022-09-14T14:02:06.519Z,2256.71
2022-09-14T14:03:06.559Z,2260.86
2022-09-14T14:04:06.531Z,2296.71
2022-09-14T14:05:06.568Z,2364.21
2022-09-14T14:06:06.604Z,2405.86
2022-09-14T14:07:06.641Z,2375.86
2022-09-14T14:08:06.682Z,2317.5
2022-09-14T14:09:06.706Z,2307.5
2022-09-14T14:10:06.738Z,2321.71
2022-09-14T14:11:06.796Z,2304.21
2022-09-14T14:12:06.784Z,2233.36
2022-09-14T14:13:06.825Z,2135
2022-09-14T14:14:06.859Z,2043.36
2022-09-14T14:15:06.919Z,1963.36
2022-09-14T14:16:07.052Z,1909.21
2022-09-14T14:17:06.968Z,1868.36
2022-09-14T14:18:07.007Z,1817.5
2022-09-14T14:19:07.041Z,1774.21
2022-09-14T14:20:07.109Z,1750
2022-09-14T14:21:07.122Z,1740
2022-09-14T14:22:07.153Z,1745.86
2022-09-14T14:23:07.196Z,1775.86
2022-09-14T14:24:13.191Z,1826.71
2022-09-14T14:25:13.718Z,1837.5
2022-09-14T14:26:07.329Z,1797.5
2022-09-14T14:27:07.326Z,1720.86
2022-09-14T14:28:07.359Z,1649.21
2022-09-14T14:29:07.428Z,1605
2022-09-14T14:30:07.435Z,1573.36
2022-09-14T14:31:08.851Z,1540
2022-09-14T14:32:07.577Z,1493.36
2022-09-14T14:33:07.533Z,1422.5
2022-09-14T14:34:07.594Z,1346.71
2022-09-14T14:35:07.610Z,1289.21
2022-09-14T14:36:07.642Z,1270
2022-09-14T14:37:07.681Z,1291.71
2022-09-14T14:38:07.731Z,1329.21
2022-09-14T14:39:07.745Z,1363.36
2022-09-14T14:40:07.896Z,1386.71
2022-09-14T14:41:07.841Z,1408.36
2022-09-14T14:42:07.853Z,1428.36
2022-09-14T14:43:07.885Z,1437.5
2022-09-14T14:44:07.945Z,1430
2022-09-14T14:45:07.951Z,1424.21
2022-09-14T14:46:08.157Z,1435.86
2022-09-14T14:47:08.022Z,1450
2022-09-14T14:48:08.054Z,1445
2022-09-14T14:49:08.113Z,1436.71
2022-09-14T14:50:08.123Z,1428.36
2022-09-14T14:51:08.151Z,1418.36
2022-09-14T14:52:08.181Z,1405
2022-09-14T14:53:08.224Z,1390.86
2022-09-14T14:54:08.277Z,1378.36
2022-09-14T14:55:08.328Z,1377.5
2022-09-14T14:56:08.332Z,1373.36
2022-09-14T14:57:08.367Z,1365
2022-09-14T14:58:08.400Z,1345.86
2022-09-14T14:59:08.436Z,1327.5
2022-09-14T15:00:08.501Z,1325
2022-09-14T15:01:08.562Z,1335
2022-09-14T15:02:08.533Z,1355.86
2022-09-14T15:03:08.622Z,1387.5
2022-09-14T15:04:08.606Z,1418.36
2022-09-14T15:05:08.661Z,1454.21
2022-09-14T15:06:08.674Z,1494.21
2022-09-14T15:07:08.705Z,1519.21
2022-09-14T15:08:08.750Z,1495
2022-09-14T15:09:08.803Z,1386.71
2022-09-14T15:10:08.837Z,1239.21
2022-09-14T15:11:08.847Z,1115
2022-09-14T15:12:08.879Z,1048.36
2022-09-14T15:13:08.939Z,1038.36
2022-09-14T15:14:08.947Z,1076.71
2022-09-14T15:15:08.998Z,1112.5
2022-09-14T15:16:10.156Z,1110
2022-09-14T15:17:09.062Z,1094.21
2022-09-14T15:18:09.109Z,1086.71
2022-09-14T15:19:09.125Z,1100
2022-09-14T15:20:09.160Z,1124.21
2022-09-14T15:21:09.185Z,1155
2022-09-14T15:22:09.218Z,1189.21
2022-09-14T15:23:09.256Z,1220
2022-09-14T15:24:09.276Z,1222.5
2022-09-14T15:25:09.315Z,1215
2022-09-14T15:26:09.350Z,1194.21
2022-09-14T15:27:09.388Z,1150.86
2022-09-14T15:28:09.419Z,1083.36
2022-09-14T15:29:09.453Z,1026.71
2022-09-14T15:30:09.492Z,1002.5
2022-09-14T15:31:09.526Z,986.714
2022-09-14T15:32:09.605Z,965
2022-09-14T15:33:09.596Z,941.714
2022-09-14T15:34:09.627Z,875
2022-09-14T15:35:09.669Z,843.357
2022-09-14T15:36:09.700Z,839.214
2022-09-14T15:37:09.746Z,830
2022-09-14T15:38:09.780Z,849.214
2022-09-14T15:39:09.820Z,874.214
2022-09-14T15:40:09.902Z,901.714
2022-09-14T15:41:09.887Z,923.357
2022-09-14T15:42:09.923Z,934.214
2022-09-14T15:43:09.958Z,946.714
2022-09-14T15:44:09.997Z,955.857
2022-09-14T15:45:10.040Z,961.714
2022-09-14T15:46:10.205Z,967.5
2022-09-14T15:47:10.110Z,970
2022-09-14T15:48:10.142Z,965
2022-09-14T15:49:10.171Z,960
2022-09-14T15:50:10.203Z,955
2022-09-14T15:51:10.246Z,941.714
2022-09-14T15:52:10.280Z,912.5
2022-09-14T15:53:10.319Z,885
2022-09-14T15:54:10.350Z,870
2022-09-14T15:55:10.383Z,846.714
2022-09-14T15:56:10.421Z,817.5
2022-09-14T15:57:10.458Z,790
2022-09-14T15:58:10.493Z,757.5
2022-09-14T15:59:10.528Z,714.214
2022-09-14T16:00:10.564Z,665
2022-09-14T16:01:10.654Z,609.214
2022-09-14T16:02:10.671Z,556.714
2022-09-14T16:03:10.661Z,528.357
2022-09-14T16:04:11.925Z,528.357
2022-09-14T16:05:10.737Z,555
2022-09-14T16:06:10.769Z,600
2022-09-14T16:07:10.812Z,651.714
2022-09-14T16:08:10.844Z,703.357
2022-09-14T16:09:10.877Z,745
2022-09-14T16:10:10.908Z,785
2022-09-14T16:11:10.955Z,832.5
2022-09-14T16:12:10.977Z,878.357
2022-09-14T16:13:11.015Z,890.857
2022-09-14T16:14:11.050Z,863.357
2022-09-14T16:15:11.104Z,826.714
2022-09-14T16:16:11.525Z,791.714
2022-09-14T16:17:11.175Z,746.714
2022-09-14T16:18:11.182Z,693.357
2022-09-14T16:19:11.245Z,641.714
2022-09-14T16:20:11.247Z,607.5
2022-09-14T16:21:11.284Z,591.714
2022-09-14T16:22:11.328Z,582.5
2022-09-14T16:23:11.450Z,575
2022-09-14T16:24:11.437Z,575
2022-09-14T16:25:11.453Z,565
2022-09-14T16:26:11.478Z,523.357
2022-09-14T16:27:11.534Z,470.857
2022-09-14T16:28:11.543Z,422.5
2022-09-14T16:29:11.584Z,380
2022-09-14T16:30:11.624Z,351.714
2022-09-14T16:31:11.702Z,340.857
2022-09-14T16:32:11.707Z,344.214
2022-09-14T16:33:11.855Z,345
2022-09-14T16:34:11.767Z,344.214
2022-09-14T16:35:11.805Z,353.357
2022-09-14T16:36:11.836Z,373.357
2022-09-14T16:37:11.900Z,395
2022-09-14T16:38:11.905Z,414.214
2022-09-14T16:39:11.941Z,424.214
2022-09-14T16:40:11.992Z,420.857
2022-09-14T16:41:12.034Z,406.714
2022-09-14T16:42:08.426Z,386.714
2022-09-14T16:44:09.748Z,342.5
2022-09-14T16:45:09.793Z,315.857
2022-09-14T16:46:05.685Z,289.214
2022-09-14T16:46:30.795Z,277.5
2022-09-14T16:47:30.826Z,250.857
2022-09-14T16:48:30.834Z,230.857
2022-09-14T16:49:22.304Z,218.357
2022-09-14T16:50:18.997Z,206.714
2022-09-14T16:51:19.028Z,197.5